CheckWX is a tool to help pilots better visualize weather data.  It is not intended as a substitute for an official pre-flight weather briefing.

14:12:34 UTC

KDSV METAR
Dansville Municipal Airport
Dansville, New York, USA
Current

19 mins ago

KDSV 201354Z AUTO 14008KT 10SM SCT029 27/23 A2990 RMK AO2 SLP126 T02720228
Observed
Jul-20 @ 13:54 UTC
Wind
  • 140° at 8 KTS
Visibility
10 SM
Flight Rules
VFR
Cloud Levels
  • Scattered at 2,900' AGL
Temperature
27°C / 81°F
Dewpoint
23°C / 73°F
Heat Index
30°C / 86°F
Humidity
79%
Altimeter
29.9" Hg
Pressure
1012.52 hPa
Previous

1 hour ago

KDSV 201254Z AUTO 13009KT 10SM CLR 27/22 A2989 RMK AO2 SLP125 T02670222
Observed
Jul-20 @ 12:54 UTC
Wind
  • 130° at 9 KTS
Visibility
10 SM
Flight Rules
VFR
Cloud Levels
  • Clear skies
Temperature
27°C / 81°F
Dewpoint
22°C / 72°F
Heat Index
29°C / 85°F
Humidity
74%
Altimeter
29.89" Hg
Pressure
1012.22 hPa
Previous

2 hours ago

KDSV 201154Z AUTO 12005KT 10SM CLR 25/22 A2989 RMK AO2 SLP124 T02500217 10250 20233 58001
Observed
Jul-20 @ 11:54 UTC
Wind
  • 120° at 5 KTS
Visibility
10 SM
Flight Rules
VFR
Cloud Levels
  • Clear skies
Temperature
25°C / 77°F
Dewpoint
22°C / 72°F
Humidity
83%
Altimeter
29.89" Hg
Pressure
1012.22 hPa